This is the latest recevied weather packets stored in our database for station/object YN9ZAM-13. If no packets are shown the sender has not sent any weather packets the latest 10 day(s).
| Time | Temp. | Humidity | Pressure | Rain* | Wind** | Luminosity | Snow |
|---|---|---|---|---|---|---|---|
| 1778358961 | 36.67° C | 36% | 1007 hPa | 0 mm | - | - | - |
| 1778358360 | 37.22° C | 36% | 1008 hPa | 0 mm | - | - | - |
| 1778357160 | 37.78° C | 36% | 1008 hPa | 0 mm | - | - | - |
| 1778342752 | 30° C | 54% | 1012 hPa | 0 mm | - | - | - |
| 1778341551 | 30.56° C | 54% | 1012 hPa | 0 mm | - | - | - |
| 1778340951 | 30.56° C | 54% | 1012 hPa | 0 mm | - | - | - |
| 1778339750 | 26.67° C | 59% | 1012 hPa | 0 mm | - | - | - |
| 1778339150 | 27.22° C | 59% | 1012 hPa | 0 mm | - | - | - |
| 1778337348 | 26.11° C | 64% | 1012 hPa | 0 mm | - | - | - |
| 1778336748 | 26.67° C | 64% | 1012 hPa | 0 mm | - | - | - |
| 1778336148 | 27.22° C | 64% | 1012 hPa | 0 mm | - | - | - |
| 1778335547 | 24.44° C | 63% | 1012 hPa | 0 mm | - | - | - |
| 1778334947 | 25° C | 63% | 1012 hPa | 0 mm | - | - | - |
| 1778334347 | 25.56° C | 63% | 1012 hPa | 0 mm | - | - | - |
| 1778333146 | 22.22° C | 74% | 1012 hPa | 0 mm | - | - | - |
| 1778332545 | 22.78° C | 74% | 1012 hPa | 0 mm | - | - | - |
| 1778331945 | 23.33° C | 74% | 1012 hPa | 0 mm | - | - | - |
| 1778331345 | 21.67° C | 72% | 1012 hPa | 0 mm | - | - | - |
| 1778330144 | 19.44° C | 72% | 1012 hPa | 0 mm | - | - | - |
| 1778329544 | 18.33° C | 76% | 1012 hPa | 0 mm | - | - | - |
| 1778328943 | 18.89° C | 76% | 1012 hPa | 0 mm | - | - | - |
| 1778328343 | 19.44° C | 76% | 1012 hPa | 0 mm | - | - | - |
| 1778327743 | 20° C | 76% | 1012 hPa | 0 mm | - | - | - |
| 1778327142 | 20.56° C | 76% | 1012 hPa | 0 mm | - | - | - |
| 1778326542 | 21.11° C | 76% | 1012 hPa | 0 mm | - | - | - |
* Rain latest hour (hover to see other rain measurements)
** Current wind speed in m/s (hover to see current wind gust speed)